COOK1: Arkansas River Nr Coolidge, KS

                                SHEF ID:       COOK1     ARKANSAS R NR COOLIDGE, KS
STATION TYPE:
Regulating: Stage = 8.00, Flow = 2026

PRECIP STAGE STAGE(2) RIV-FLOW WTR-TEMP CONDUCT BAT-LOAD
in ft ft cfs F umho/cm volt
Ccp-Rev Ccp-Rev Ccp-Rev Ccp-Rev Ccp-Rev Ccp-Rev Ccp-Rev
(America/Chicago)
07/19 00:00 0.00 4.52 4.66 368 78.87 3184 12.95
07/19 01:00 0.00 4.52 4.65 368 78.15 3193 12.95
07/19 02:00 0.00 4.51 4.69 365 77.47 3202 12.89
07/19 03:00 0.00 4.53 4.67 370 76.84 3211 12.89
07/19 04:00 0.00 4.52 4.66 368 76.19 3220 12.89
07/19 05:00 0.00 4.53 4.68 370 75.56 3233 12.89
07/19 06:00 0.00 4.54 4.69 373 74.97 3242 12.83
07/19 07:00 0.00 4.54 4.68 373 74.39 3253 12.83
07/19 08:00 0.00 4.53 4.70 370 73.96 3254 12.83
07/19 09:00 0.00 4.54 4.71 373 73.85 3247 12.89
07/19 10:00 0.00 4.53 4.69 370 74.17 3242 13.07
07/19 11:00 0.00 4.52 4.69 368 74.98 3245 13.53
07/19 12:00 0.00 4.55 4.71 376 76.15 3244 13.71
07/19 13:00 0.00 4.56 4.71 378 77.52 3249 13.77
07/19 14:00 0.00 4.55 4.70 376 78.98 3249 13.77
07/19 15:00 0.00 4.55 4.73 376 80.38 3251 13.71
07/19 16:00 0.00 4.57 4.71 381 81.61 3267 13.59
07/19 17:00 0.00 4.57 4.71 381 82.47 3281 13.48
07/19 18:00 0.00 4.56 4.70 378 82.85 3289 13.30
07/19 19:00 0.00 4.57 4.73 381 82.44 3278 13.07
07/19 20:00 0.00 4.55 4.69 376 81.54 3269 13.00
07/19 21:00 0.00 4.54 4.66 373 80.85 3280 12.95
07/19 22:00 0.00 4.53 4.61 370 80.28 3289 12.95
07/19 23:00 ---- ---- ---- ---- ---- ---- ----
Data processed at Sat 20Jul2024 04:30 GMT

Parsing this webpage?

Checkout our new Data API! CWMSDataAPI (CDA)

Timeseries IDs (TSIDs)

TSIDs used from left to right in the data table
COOL.Precip-Inc.Total.1Hour.1Hour.Ccp-Rev
COOL.Stage.Inst.1Hour.0.Ccp-Rev
COOL.Stage-Alt.Inst.1Hour.0.Ccp-Rev
COOL.Flow.Inst.1Hour.0.Ccp-Rev
COOL.Temp-Water.Inst.1Hour.0.Ccp-Rev
COOL.Cond.Inst.1Hour.0.Ccp-Rev
COOL.Volt-Battery Load.Inst.1Hour.0.Ccp-Rev

                            

All information presented herein is the property of the government of the United States of America and may be revised or deleted at any time without prior notice. Dissemination of this information without the expressed written consent of the Public Affairs Office, Tulsa District U.S. Army Corps of Engineers is strictly prohibited. These data are gathered electronically and, as presented, have NOT undergone any form of quality control. These data are NOT guaranteed to be valid or correct.